sensor_id;sensor_type;location;lat;lon;timestamp;P1;durP1;ratioP1;P2;durP2;ratioP2
24559;SDS011;12727;49.934;8.656;2023-02-22T00:00:25;21.33;;;12.30;;
24559;SDS011;12727;49.934;8.656;2023-02-22T00:03:08;22.27;;;12.90;;
24559;SDS011;12727;49.934;8.656;2023-02-22T00:05:39;27.30;;;13.65;;
24559;SDS011;12727;49.934;8.656;2023-02-22T00:08:09;25.42;;;14.90;;
24559;SDS011;12727;49.934;8.656;2023-02-22T00:10:35;25.77;;;14.27;;
24559;SDS011;12727;49.934;8.656;2023-02-22T00:13:02;28.33;;;15.18;;
24559;SDS011;12727;49.934;8.656;2023-02-22T00:15:29;29.45;;;16.13;;
24559;SDS011;12727;49.934;8.656;2023-02-22T00:17:55;25.17;;;15.63;;
24559;SDS011;12727;49.934;8.656;2023-02-22T00:20:21;25.20;;;14.85;;
24559;SDS011;12727;49.934;8.656;2023-02-22T00:22:47;24.63;;;15.82;;
24559;SDS011;12727;49.934;8.656;2023-02-22T00:25:16;29.67;;;14.70;;
24559;SDS011;12727;49.934;8.656;2023-02-22T00:27:44;29.80;;;15.55;;
24559;SDS011;12727;49.934;8.656;2023-02-22T00:30:15;27.25;;;16.08;;
24559;SDS011;12727;49.934;8.656;2023-02-22T00:32:47;27.42;;;15.60;;
24559;SDS011;12727;49.934;8.656;2023-02-22T00:35:14;23.63;;;14.18;;
24559;SDS011;12727;49.934;8.656;2023-02-22T00:37:42;27.13;;;15.02;;
24559;SDS011;12727;49.934;8.656;2023-02-22T00:40:13;23.90;;;14.55;;
24559;SDS011;12727;49.934;8.656;2023-02-22T00:42:40;25.50;;;15.10;;
24559;SDS011;12727;49.934;8.656;2023-02-22T00:45:06;25.70;;;15.50;;
24559;SDS011;12727;49.934;8.656;2023-02-22T00:47:32;28.00;;;15.40;;
24559;SDS011;12727;49.934;8.656;2023-02-22T00:49:58;25.83;;;14.20;;
24559;SDS011;12727;49.934;8.656;2023-02-22T00:52:24;27.40;;;16.05;;
24559;SDS011;12727;49.934;8.656;2023-02-22T00:54:51;27.23;;;14.00;;
24559;SDS011;12727;49.934;8.656;2023-02-22T00:57:17;24.40;;;14.60;;
24559;SDS011;12727;49.934;8.656;2023-02-22T00:59:43;22.75;;;14.13;;
24559;SDS011;12727;49.934;8.656;2023-02-22T01:02:09;23.92;;;14.38;;
24559;SDS011;12727;49.934;8.656;2023-02-22T01:04:34;21.80;;;13.82;;
24559;SDS011;12727;49.934;8.656;2023-02-22T01:07:00;26.08;;;14.32;;
24559;SDS011;12727;49.934;8.656;2023-02-22T01:09:25;24.02;;;14.88;;
24559;SDS011;12727;49.934;8.656;2023-02-22T01:11:52;26.17;;;15.60;;
24559;SDS011;12727;49.934;8.656;2023-02-22T01:14:22;24.85;;;14.32;;
24559;SDS011;12727;49.934;8.656;2023-02-22T01:16:50;25.08;;;14.55;;
24559;SDS011;12727;49.934;8.656;2023-02-22T01:19:16;26.73;;;14.85;;
24559;SDS011;12727;49.934;8.656;2023-02-22T01:21:42;24.45;;;14.75;;
24559;SDS011;12727;49.934;8.656;2023-02-22T01:24:08;27.20;;;14.32;;
24559;SDS011;12727;49.934;8.656;2023-02-22T01:26:33;23.52;;;12.77;;
24559;SDS011;12727;49.934;8.656;2023-02-22T01:28:59;20.98;;;13.32;;
24559;SDS011;12727;49.934;8.656;2023-02-22T01:31:25;25.02;;;14.27;;
24559;SDS011;12727;49.934;8.656;2023-02-22T01:33:51;24.15;;;13.93;;
24559;SDS011;12727;49.934;8.656;2023-02-22T01:36:17;26.30;;;15.32;;
24559;SDS011;12727;49.934;8.656;2023-02-22T01:38:43;24.42;;;14.05;;
24559;SDS011;12727;49.934;8.656;2023-02-22T01:41:10;22.40;;;14.23;;
24559;SDS011;12727;49.934;8.656;2023-02-22T01:43:36;21.30;;;13.48;;
24559;SDS011;12727;49.934;8.656;2023-02-22T01:46:06;21.92;;;13.80;;
24559;SDS011;12727;49.934;8.656;2023-02-22T01:48:54;22.27;;;13.07;;
24559;SDS011;12727;49.934;8.656;2023-02-22T01:51:24;21.08;;;12.75;;
24559;SDS011;12727;49.934;8.656;2023-02-22T01:53:54;20.38;;;13.13;;
24559;SDS011;12727;49.934;8.656;2023-02-22T01:56:26;20.77;;;13.38;;
24559;SDS011;12727;49.934;8.656;2023-02-22T01:59:01;22.50;;;12.57;;
24559;SDS011;12727;49.934;8.656;2023-02-22T02:01:30;19.55;;;11.10;;
24559;SDS011;12727;49.934;8.656;2023-02-22T02:03:57;23.70;;;14.23;;
24559;SDS011;12727;49.934;8.656;2023-02-22T02:06:25;25.42;;;13.25;;
24559;SDS011;12727;49.934;8.656;2023-02-22T02:11:29;24.00;;;12.80;;
24559;SDS011;12727;49.934;8.656;2023-02-22T02:13:56;18.65;;;12.68;;
24559;SDS011;12727;49.934;8.656;2023-02-22T02:16:23;15.40;;;10.77;;
24559;SDS011;12727;49.934;8.656;2023-02-22T02:18:51;14.93;;;10.38;;
24559;SDS011;12727;49.934;8.656;2023-02-22T02:24:15;20.42;;;11.85;;
24559;SDS011;12727;49.934;8.656;2023-02-22T02:27:18;17.02;;;9.57;;
24559;SDS011;12727;49.934;8.656;2023-02-22T02:29:58;15.50;;;10.20;;
24559;SDS011;12727;49.934;8.656;2023-02-22T02:32:57;21.08;;;10.20;;
24559;SDS011;12727;49.934;8.656;2023-02-22T02:41:17;19.73;;;12.57;;
24559;SDS011;12727;49.934;8.656;2023-02-22T02:46:46;20.30;;;11.63;;
24559;SDS011;12727;49.934;8.656;2023-02-22T02:49:29;20.35;;;10.20;;
24559;SDS011;12727;49.934;8.656;2023-02-22T02:52:18;18.25;;;10.60;;
24559;SDS011;12727;49.934;8.656;2023-02-22T02:54:47;17.95;;;10.52;;
24559;SDS011;12727;49.934;8.656;2023-02-22T02:57:14;14.55;;;9.68;;
24559;SDS011;12727;49.934;8.656;2023-02-22T02:59:40;15.25;;;9.50;;
24559;SDS011;12727;49.934;8.656;2023-02-22T03:02:30;17.38;;;9.05;;
24559;SDS011;12727;49.934;8.656;2023-02-22T03:18:17;21.55;;;12.57;;
24559;SDS011;12727;49.934;8.656;2023-02-22T03:26:37;22.83;;;13.60;;
24559;SDS011;12727;49.934;8.656;2023-02-22T03:29:07;25.20;;;15.27;;
24559;SDS011;12727;49.934;8.656;2023-02-22T03:31:37;25.48;;;14.60;;
24559;SDS011;12727;49.934;8.656;2023-02-22T03:36:46;17.00;;;10.98;;
24559;SDS011;12727;49.934;8.656;2023-02-22T03:39:27;17.33;;;10.20;;
24559;SDS011;12727;49.934;8.656;2023-02-22T03:41:56;15.68;;;10.35;;
24559;SDS011;12727;49.934;8.656;2023-02-22T03:44:28;26.13;;;12.97;;
24559;SDS011;12727;49.934;8.656;2023-02-22T03:46:58;21.17;;;12.13;;
24559;SDS011;12727;49.934;8.656;2023-02-22T03:49:36;23.95;;;14.68;;
24559;SDS011;12727;49.934;8.656;2023-02-22T03:52:09;29.95;;;16.38;;
24559;SDS011;12727;49.934;8.656;2023-02-22T03:54:36;20.13;;;12.40;;
24559;SDS011;12727;49.934;8.656;2023-02-22T03:57:25;18.63;;;10.55;;
24559;SDS011;12727;49.934;8.656;2023-02-22T04:00:13;18.90;;;11.13;;
24559;SDS011;12727;49.934;8.656;2023-02-22T04:02:42;19.45;;;11.43;;
24559;SDS011;12727;49.934;8.656;2023-02-22T04:05:07;18.00;;;11.63;;
24559;SDS011;12727;49.934;8.656;2023-02-22T04:07:33;19.20;;;11.15;;
24559;SDS011;12727;49.934;8.656;2023-02-22T04:09:59;20.02;;;12.65;;
24559;SDS011;12727;49.934;8.656;2023-02-22T04:12:26;21.42;;;12.48;;
24559;SDS011;12727;49.934;8.656;2023-02-22T04:14:52;19.70;;;12.35;;
24559;SDS011;12727;49.934;8.656;2023-02-22T04:17:18;17.70;;;12.00;;
24559;SDS011;12727;49.934;8.656;2023-02-22T04:19:43;15.88;;;10.52;;
24559;SDS011;12727;49.934;8.656;2023-02-22T04:22:09;20.45;;;10.73;;
24559;SDS011;12727;49.934;8.656;2023-02-22T04:24:35;20.70;;;10.52;;
24559;SDS011;12727;49.934;8.656;2023-02-22T04:27:01;19.05;;;11.45;;
24559;SDS011;12727;49.934;8.656;2023-02-22T04:29:27;19.48;;;10.50;;
24559;SDS011;12727;49.934;8.656;2023-02-22T04:31:54;19.38;;;11.38;;
24559;SDS011;12727;49.934;8.656;2023-02-22T04:34:19;15.82;;;9.75;;
24559;SDS011;12727;49.934;8.656;2023-02-22T04:36:45;18.90;;;11.00;;
24559;SDS011;12727;49.934;8.656;2023-02-22T04:39:11;16.80;;;10.52;;
24559;SDS011;12727;49.934;8.656;2023-02-22T04:41:36;19.75;;;12.50;;
24559;SDS011;12727;49.934;8.656;2023-02-22T04:44:02;19.75;;;11.38;;
24559;SDS011;12727;49.934;8.656;2023-02-22T04:46:28;27.60;;;13.60;;
24559;SDS011;12727;49.934;8.656;2023-02-22T04:48:53;25.90;;;15.25;;
24559;SDS011;12727;49.934;8.656;2023-02-22T04:51:19;28.15;;;17.75;;
24559;SDS011;12727;49.934;8.656;2023-02-22T04:53:44;33.97;;;17.42;;
24559;SDS011;12727;49.934;8.656;2023-02-22T04:56:10;20.75;;;14.07;;
24559;SDS011;12727;49.934;8.656;2023-02-22T04:58:36;23.20;;;11.55;;
24559;SDS011;12727;49.934;8.656;2023-02-22T05:01:02;22.35;;;11.70;;
24559;SDS011;12727;49.934;8.656;2023-02-22T05:03:28;21.00;;;11.90;;
24559;SDS011;12727;49.934;8.656;2023-02-22T05:05:53;17.55;;;11.75;;
24559;SDS011;12727;49.934;8.656;2023-02-22T05:08:19;399.20;;;47.88;;
24559;SDS011;12727;49.934;8.656;2023-02-22T05:10:44;436.08;;;52.97;;
24559;SDS011;12727;49.934;8.656;2023-02-22T05:13:10;27.35;;;15.95;;
24559;SDS011;12727;49.934;8.656;2023-02-22T05:15:36;24.90;;;15.48;;
24559;SDS011;12727;49.934;8.656;2023-02-22T05:18:01;25.73;;;13.13;;
24559;SDS011;12727;49.934;8.656;2023-02-22T05:20:31;24.95;;;13.50;;
24559;SDS011;12727;49.934;8.656;2023-02-22T05:22:59;19.60;;;11.65;;
24559;SDS011;12727;49.934;8.656;2023-02-22T05:25:26;17.73;;;11.73;;
24559;SDS011;12727;49.934;8.656;2023-02-22T05:28:03;23.95;;;13.02;;
24559;SDS011;12727;49.934;8.656;2023-02-22T05:30:32;21.33;;;13.50;;
24559;SDS011;12727;49.934;8.656;2023-02-22T05:33:00;24.35;;;14.18;;
24559;SDS011;12727;49.934;8.656;2023-02-22T05:35:28;25.83;;;14.05;;
24559;SDS011;12727;49.934;8.656;2023-02-22T05:37:53;24.35;;;14.00;;
24559;SDS011;12727;49.934;8.656;2023-02-22T05:40:21;77.63;;;21.38;;
24559;SDS011;12727;49.934;8.656;2023-02-22T05:42:49;32.33;;;18.38;;
24559;SDS011;12727;49.934;8.656;2023-02-22T05:45:17;35.78;;;19.52;;
24559;SDS011;12727;49.934;8.656;2023-02-22T05:47:43;38.20;;;18.80;;
24559;SDS011;12727;49.934;8.656;2023-02-22T05:50:09;25.65;;;14.27;;
24559;SDS011;12727;49.934;8.656;2023-02-22T05:52:35;26.15;;;15.38;;
24559;SDS011;12727;49.934;8.656;2023-02-22T05:55:01;26.70;;;14.70;;
24559;SDS011;12727;49.934;8.656;2023-02-22T05:57:26;25.23;;;14.82;;
24559;SDS011;12727;49.934;8.656;2023-02-22T05:59:52;32.92;;;16.45;;
24559;SDS011;12727;49.934;8.656;2023-02-22T06:02:17;26.30;;;14.80;;
24559;SDS011;12727;49.934;8.656;2023-02-22T06:04:44;25.05;;;16.42;;
24559;SDS011;12727;49.934;8.656;2023-02-22T06:07:10;36.15;;;18.60;;
24559;SDS011;12727;49.934;8.656;2023-02-22T06:09:37;32.03;;;19.15;;
24559;SDS011;12727;49.934;8.656;2023-02-22T06:12:02;34.58;;;18.92;;
24559;SDS011;12727;49.934;8.656;2023-02-22T06:14:28;44.72;;;18.83;;
24559;SDS011;12727;49.934;8.656;2023-02-22T06:16:54;32.60;;;18.02;;
24559;SDS011;12727;49.934;8.656;2023-02-22T06:19:21;35.70;;;16.75;;
24559;SDS011;12727;49.934;8.656;2023-02-22T06:21:52;30.23;;;16.30;;
24559;SDS011;12727;49.934;8.656;2023-02-22T06:24:20;31.27;;;16.08;;
24559;SDS011;12727;49.934;8.656;2023-02-22T06:26:45;37.78;;;19.02;;
24559;SDS011;12727;49.934;8.656;2023-02-22T06:29:18;42.05;;;20.00;;
24559;SDS011;12727;49.934;8.656;2023-02-22T06:31:43;41.13;;;18.85;;
24559;SDS011;12727;49.934;8.656;2023-02-22T06:34:09;32.20;;;17.23;;
24559;SDS011;12727;49.934;8.656;2023-02-22T06:36:35;38.95;;;16.92;;
24559;SDS011;12727;49.934;8.656;2023-02-22T06:39:01;34.08;;;13.40;;
24559;SDS011;12727;49.934;8.656;2023-02-22T06:41:27;34.20;;;19.02;;
24559;SDS011;12727;49.934;8.656;2023-02-22T06:43:54;24.13;;;13.68;;
24559;SDS011;12727;49.934;8.656;2023-02-22T06:46:19;31.17;;;14.85;;
24559;SDS011;12727;49.934;8.656;2023-02-22T06:48:45;30.23;;;14.90;;
24559;SDS011;12727;49.934;8.656;2023-02-22T06:51:11;30.83;;;14.73;;
24559;SDS011;12727;49.934;8.656;2023-02-22T06:53:36;33.70;;;13.95;;
24559;SDS011;12727;49.934;8.656;2023-02-22T06:56:02;21.60;;;13.25;;
24559;SDS011;12727;49.934;8.656;2023-02-22T06:58:28;22.00;;;13.48;;
24559;SDS011;12727;49.934;8.656;2023-02-22T07:00:54;22.48;;;12.55;;
24559;SDS011;12727;49.934;8.656;2023-02-22T07:03:19;25.73;;;13.68;;
24559;SDS011;12727;49.934;8.656;2023-02-22T07:05:45;24.65;;;14.70;;
24559;SDS011;12727;49.934;8.656;2023-02-22T07:08:11;31.42;;;15.88;;
24559;SDS011;12727;49.934;8.656;2023-02-22T07:10:37;29.05;;;13.38;;
24559;SDS011;12727;49.934;8.656;2023-02-22T07:13:04;30.33;;;13.00;;
24559;SDS011;12727;49.934;8.656;2023-02-22T07:15:31;25.73;;;13.32;;
24559;SDS011;12727;49.934;8.656;2023-02-22T07:17:58;26.02;;;11.43;;
24559;SDS011;12727;49.934;8.656;2023-02-22T07:20:26;19.65;;;11.10;;
24559;SDS011;12727;49.934;8.656;2023-02-22T07:22:52;20.40;;;10.77;;
24559;SDS011;12727;49.934;8.656;2023-02-22T07:25:18;20.42;;;11.13;;
24559;SDS011;12727;49.934;8.656;2023-02-22T07:27:44;23.05;;;11.93;;
24559;SDS011;12727;49.934;8.656;2023-02-22T07:30:23;27.58;;;12.38;;
24559;SDS011;12727;49.934;8.656;2023-02-22T07:32:57;20.65;;;11.55;;
24559;SDS011;12727;49.934;8.656;2023-02-22T07:35:28;19.17;;;11.27;;
24559;SDS011;12727;49.934;8.656;2023-02-22T07:37:55;20.83;;;11.63;;
24559;SDS011;12727;49.934;8.656;2023-02-22T07:40:21;19.25;;;10.55;;
24559;SDS011;12727;49.934;8.656;2023-02-22T07:43:00;15.82;;;10.05;;
24559;SDS011;12727;49.934;8.656;2023-02-22T07:45:28;21.77;;;11.15;;
24559;SDS011;12727;49.934;8.656;2023-02-22T07:47:54;21.10;;;11.85;;
24559;SDS011;12727;49.934;8.656;2023-02-22T07:50:21;21.95;;;12.30;;
24559;SDS011;12727;49.934;8.656;2023-02-22T07:52:48;21.10;;;11.43;;
24559;SDS011;12727;49.934;8.656;2023-02-22T07:55:16;17.40;;;11.60;;
24559;SDS011;12727;49.934;8.656;2023-02-22T07:57:45;22.63;;;12.52;;
24559;SDS011;12727;49.934;8.656;2023-02-22T08:00:11;18.50;;;11.82;;
24559;SDS011;12727;49.934;8.656;2023-02-22T08:02:39;17.42;;;11.80;;
24559;SDS011;12727;49.934;8.656;2023-02-22T08:05:05;18.13;;;11.35;;
24559;SDS011;12727;49.934;8.656;2023-02-22T08:07:31;19.08;;;12.13;;
24559;SDS011;12727;49.934;8.656;2023-02-22T08:09:57;21.10;;;11.95;;
24559;SDS011;12727;49.934;8.656;2023-02-22T08:12:23;19.63;;;11.45;;
24559;SDS011;12727;49.934;8.656;2023-02-22T08:14:48;16.58;;;10.65;;
24559;SDS011;12727;49.934;8.656;2023-02-22T08:17:14;18.60;;;11.40;;
24559;SDS011;12727;49.934;8.656;2023-02-22T08:19:39;19.15;;;11.93;;
24559;SDS011;12727;49.934;8.656;2023-02-22T08:22:05;20.30;;;12.80;;
24559;SDS011;12727;49.934;8.656;2023-02-22T08:24:31;15.50;;;11.00;;
24559;SDS011;12727;49.934;8.656;2023-02-22T08:26:56;16.35;;;11.10;;
24559;SDS011;12727;49.934;8.656;2023-02-22T08:29:22;15.10;;;10.93;;
24559;SDS011;12727;49.934;8.656;2023-02-22T08:31:51;16.42;;;11.43;;
24559;SDS011;12727;49.934;8.656;2023-02-22T08:34:18;13.93;;;10.18;;
24559;SDS011;12727;49.934;8.656;2023-02-22T08:36:44;16.40;;;11.25;;
24559;SDS011;12727;49.934;8.656;2023-02-22T08:39:09;15.73;;;11.23;;
24559;SDS011;12727;49.934;8.656;2023-02-22T08:41:35;15.15;;;10.23;;
24559;SDS011;12727;49.934;8.656;2023-02-22T08:44:01;13.32;;;10.35;;
24559;SDS011;12727;49.934;8.656;2023-02-22T08:46:29;12.27;;;9.52;;
24559;SDS011;12727;49.934;8.656;2023-02-22T08:48:54;12.30;;;9.55;;
24559;SDS011;12727;49.934;8.656;2023-02-22T08:51:20;10.85;;;9.02;;
24559;SDS011;12727;49.934;8.656;2023-02-22T08:53:46;12.27;;;9.30;;
24559;SDS011;12727;49.934;8.656;2023-02-22T08:56:11;11.23;;;8.82;;
24559;SDS011;12727;49.934;8.656;2023-02-22T08:58:37;12.27;;;9.43;;
24559;SDS011;12727;49.934;8.656;2023-02-22T09:01:02;12.27;;;9.63;;
24559;SDS011;12727;49.934;8.656;2023-02-22T09:03:28;11.75;;;9.27;;
24559;SDS011;12727;49.934;8.656;2023-02-22T09:05:54;11.38;;;8.90;;
24559;SDS011;12727;49.934;8.656;2023-02-22T09:08:20;12.00;;;8.52;;
24559;SDS011;12727;49.934;8.656;2023-02-22T09:10:45;11.77;;;8.50;;
24559;SDS011;12727;49.934;8.656;2023-02-22T09:13:13;9.75;;;8.52;;
24559;SDS011;12727;49.934;8.656;2023-02-22T09:15:39;9.93;;;8.70;;
24559;SDS011;12727;49.934;8.656;2023-02-22T09:18:06;11.52;;;9.70;;
24559;SDS011;12727;49.934;8.656;2023-02-22T09:20:32;11.50;;;9.13;;
24559;SDS011;12727;49.934;8.656;2023-02-22T09:23:00;12.38;;;8.88;;
24559;SDS011;12727;49.934;8.656;2023-02-22T09:25:27;10.73;;;8.77;;
24559;SDS011;12727;49.934;8.656;2023-02-22T09:27:53;13.88;;;9.02;;
24559;SDS011;12727;49.934;8.656;2023-02-22T09:30:22;11.38;;;9.30;;
24559;SDS011;12727;49.934;8.656;2023-02-22T09:32:48;11.43;;;8.73;;
24559;SDS011;12727;49.934;8.656;2023-02-22T09:35:14;14.27;;;9.80;;
24559;SDS011;12727;49.934;8.656;2023-02-22T09:37:41;12.55;;;9.18;;
24559;SDS011;12727;49.934;8.656;2023-02-22T09:40:12;10.63;;;8.52;;
24559;SDS011;12727;49.934;8.656;2023-02-22T09:42:51;9.85;;;8.40;;
24559;SDS011;12727;49.934;8.656;2023-02-22T09:48:38;12.15;;;9.30;;
24559;SDS011;12727;49.934;8.656;2023-02-22T09:51:37;11.45;;;8.95;;
24559;SDS011;12727;49.934;8.656;2023-02-22T09:54:15;10.57;;;8.23;;
24559;SDS011;12727;49.934;8.656;2023-02-22T09:56:55;11.40;;;9.20;;
24559;SDS011;12727;49.934;8.656;2023-02-22T09:59:24;14.10;;;9.38;;
24559;SDS011;12727;49.934;8.656;2023-02-22T10:01:58;11.25;;;9.70;;
24559;SDS011;12727;49.934;8.656;2023-02-22T10:04:37;12.38;;;9.80;;
24559;SDS011;12727;49.934;8.656;2023-02-22T10:07:19;14.07;;;10.25;;
24559;SDS011;12727;49.934;8.656;2023-02-22T10:09:50;11.13;;;9.80;;
24559;SDS011;12727;49.934;8.656;2023-02-22T10:15:07;13.10;;;9.68;;
24559;SDS011;12727;49.934;8.656;2023-02-22T10:17:55;13.00;;;10.90;;
24559;SDS011;12727;49.934;8.656;2023-02-22T10:20:47;12.75;;;10.60;;
24559;SDS011;12727;49.934;8.656;2023-02-22T10:26:01;12.70;;;10.52;;
24559;SDS011;12727;49.934;8.656;2023-02-22T10:29:06;12.93;;;11.27;;
24559;SDS011;12727;49.934;8.656;2023-02-22T10:31:44;11.95;;;10.70;;
24559;SDS011;12727;49.934;8.656;2023-02-22T10:34:17;14.43;;;10.68;;
24559;SDS011;12727;49.934;8.656;2023-02-22T10:36:48;15.70;;;12.02;;
24559;SDS011;12727;49.934;8.656;2023-02-22T10:42:03;17.17;;;12.83;;
24559;SDS011;12727;49.934;8.656;2023-02-22T10:44:34;16.95;;;13.07;;
24559;SDS011;12727;49.934;8.656;2023-02-22T10:47:10;17.10;;;13.80;;
24559;SDS011;12727;49.934;8.656;2023-02-22T10:49:42;16.75;;;13.70;;
24559;SDS011;12727;49.934;8.656;2023-02-22T10:52:22;15.65;;;13.48;;
24559;SDS011;12727;49.934;8.656;2023-02-22T10:54:49;16.48;;;13.65;;
24559;SDS011;12727;49.934;8.656;2023-02-22T10:57:19;16.92;;;14.05;;
24559;SDS011;12727;49.934;8.656;2023-02-22T10:59:48;18.58;;;14.02;;
24559;SDS011;12727;49.934;8.656;2023-02-22T11:04:48;18.05;;;15.35;;
24559;SDS011;12727;49.934;8.656;2023-02-22T11:07:34;22.65;;;16.85;;
24559;SDS011;12727;49.934;8.656;2023-02-22T11:10:02;20.15;;;15.18;;
24559;SDS011;12727;49.934;8.656;2023-02-22T11:12:33;18.30;;;14.98;;
24559;SDS011;12727;49.934;8.656;2023-02-22T11:17:41;25.08;;;17.40;;
24559;SDS011;12727;49.934;8.656;2023-02-22T11:20:19;22.35;;;16.65;;
24559;SDS011;12727;49.934;8.656;2023-02-22T11:22:49;21.73;;;17.10;;
24559;SDS011;12727;49.934;8.656;2023-02-22T11:25:19;22.73;;;17.27;;
24559;SDS011;12727;49.934;8.656;2023-02-22T11:27:48;22.05;;;17.45;;
24559;SDS011;12727;49.934;8.656;2023-02-22T11:32:48;22.10;;;16.55;;
24559;SDS011;12727;49.934;8.656;2023-02-22T11:35:22;20.02;;;16.25;;
24559;SDS011;12727;49.934;8.656;2023-02-22T11:38:08;20.50;;;16.42;;
24559;SDS011;12727;49.934;8.656;2023-02-22T11:40:42;20.85;;;16.60;;
24559;SDS011;12727;49.934;8.656;2023-02-22T11:43:13;21.52;;;16.67;;
24559;SDS011;12727;49.934;8.656;2023-02-22T11:45:57;21.63;;;16.50;;
24559;SDS011;12727;49.934;8.656;2023-02-22T11:48:27;19.02;;;15.05;;
24559;SDS011;12727;49.934;8.656;2023-02-22T11:51:04;23.40;;;16.30;;
24559;SDS011;12727;49.934;8.656;2023-02-22T11:56:38;22.65;;;17.20;;
24559;SDS011;12727;49.934;8.656;2023-02-22T12:08:03;20.63;;;15.55;;
24559;SDS011;12727;49.934;8.656;2023-02-22T12:19:14;19.90;;;14.70;;
24559;SDS011;12727;49.934;8.656;2023-02-22T12:21:45;21.63;;;16.45;;
24559;SDS011;12727;49.934;8.656;2023-02-22T12:24:24;22.70;;;15.23;;
24559;SDS011;12727;49.934;8.656;2023-02-22T12:26:56;22.42;;;15.95;;
24559;SDS011;12727;49.934;8.656;2023-02-22T12:34:39;22.08;;;17.23;;
24559;SDS011;12727;49.934;8.656;2023-02-22T12:37:15;21.50;;;16.73;;
24559;SDS011;12727;49.934;8.656;2023-02-22T12:39:51;23.15;;;17.65;;
24559;SDS011;12727;49.934;8.656;2023-02-22T12:45:24;21.17;;;14.90;;
24559;SDS011;12727;49.934;8.656;2023-02-22T12:48:09;19.88;;;15.70;;
24559;SDS011;12727;49.934;8.656;2023-02-22T12:51:13;22.98;;;16.67;;
24559;SDS011;12727;49.934;8.656;2023-02-22T12:53:40;25.15;;;16.92;;
24559;SDS011;12727;49.934;8.656;2023-02-22T12:56:33;20.38;;;16.00;;
24559;SDS011;12727;49.934;8.656;2023-02-22T12:59:14;25.70;;;16.30;;
24559;SDS011;12727;49.934;8.656;2023-02-22T13:01:51;20.23;;;15.27;;
24559;SDS011;12727;49.934;8.656;2023-02-22T13:04:20;17.80;;;14.90;;
24559;SDS011;12727;49.934;8.656;2023-02-22T13:12:30;23.15;;;15.82;;
24559;SDS011;12727;49.934;8.656;2023-02-22T13:15:01;19.13;;;15.45;;
24559;SDS011;12727;49.934;8.656;2023-02-22T13:17:49;19.83;;;14.35;;
24559;SDS011;12727;49.934;8.656;2023-02-22T13:20:49;18.00;;;14.30;;
24559;SDS011;12727;49.934;8.656;2023-02-22T13:23:57;22.48;;;16.40;;
24559;SDS011;12727;49.934;8.656;2023-02-22T13:26:33;19.85;;;15.00;;
24559;SDS011;12727;49.934;8.656;2023-02-22T13:29:12;23.17;;;16.13;;
24559;SDS011;12727;49.934;8.656;2023-02-22T13:31:53;23.48;;;16.67;;
24559;SDS011;12727;49.934;8.656;2023-02-22T13:35:07;21.15;;;16.05;;
24559;SDS011;12727;49.934;8.656;2023-02-22T13:54:12;22.33;;;16.35;;
24559;SDS011;12727;49.934;8.656;2023-02-22T13:56:44;19.95;;;15.65;;
24559;SDS011;12727;49.934;8.656;2023-02-22T13:59:22;20.40;;;15.95;;
24559;SDS011;12727;49.934;8.656;2023-02-22T14:01:52;24.27;;;16.85;;
24559;SDS011;12727;49.934;8.656;2023-02-22T14:06:50;22.23;;;16.05;;
24559;SDS011;12727;49.934;8.656;2023-02-22T14:09:39;23.13;;;16.48;;
24559;SDS011;12727;49.934;8.656;2023-02-22T14:12:02;24.48;;;17.60;;
24559;SDS011;12727;49.934;8.656;2023-02-22T14:14:27;23.50;;;18.17;;
24559;SDS011;12727;49.934;8.656;2023-02-22T14:19:59;24.48;;;17.10;;
24559;SDS011;12727;49.934;8.656;2023-02-22T14:22:38;26.00;;;18.15;;
24559;SDS011;12727;49.934;8.656;2023-02-22T14:25:04;25.48;;;18.90;;
24559;SDS011;12727;49.934;8.656;2023-02-22T14:27:40;24.17;;;17.77;;
24559;SDS011;12727;49.934;8.656;2023-02-22T14:30:20;27.65;;;18.50;;
24559;SDS011;12727;49.934;8.656;2023-02-22T14:32:51;24.38;;;18.08;;
24559;SDS011;12727;49.934;8.656;2023-02-22T14:35:16;25.58;;;17.90;;
24559;SDS011;12727;49.934;8.656;2023-02-22T14:37:47;24.50;;;17.85;;
24559;SDS011;12727;49.934;8.656;2023-02-22T14:40:29;24.70;;;17.85;;
24559;SDS011;12727;49.934;8.656;2023-02-22T14:43:01;24.77;;;18.70;;
24559;SDS011;12727;49.934;8.656;2023-02-22T14:45:48;27.23;;;18.27;;
24559;SDS011;12727;49.934;8.656;2023-02-22T14:50:56;27.10;;;18.60;;
24559;SDS011;12727;49.934;8.656;2023-02-22T14:56:22;26.65;;;17.95;;
24559;SDS011;12727;49.934;8.656;2023-02-22T15:01:49;26.38;;;18.88;;
24559;SDS011;12727;49.934;8.656;2023-02-22T15:04:28;24.30;;;18.88;;
24559;SDS011;12727;49.934;8.656;2023-02-22T15:06:55;29.27;;;19.92;;
24559;SDS011;12727;49.934;8.656;2023-02-22T15:09:24;25.75;;;19.13;;
24559;SDS011;12727;49.934;8.656;2023-02-22T15:12:09;24.40;;;18.60;;
24559;SDS011;12727;49.934;8.656;2023-02-22T15:14:38;27.13;;;18.20;;
24559;SDS011;12727;49.934;8.656;2023-02-22T15:17:23;26.70;;;18.63;;
24559;SDS011;12727;49.934;8.656;2023-02-22T15:19:49;27.15;;;18.45;;
24559;SDS011;12727;49.934;8.656;2023-02-22T15:22:18;29.13;;;19.73;;
24559;SDS011;12727;49.934;8.656;2023-02-22T15:24:59;29.97;;;20.47;;
24559;SDS011;12727;49.934;8.656;2023-02-22T15:27:25;26.90;;;19.35;;
24559;SDS011;12727;49.934;8.656;2023-02-22T15:29:55;28.80;;;19.23;;
24559;SDS011;12727;49.934;8.656;2023-02-22T15:37:38;23.23;;;18.00;;
24559;SDS011;12727;49.934;8.656;2023-02-22T15:40:07;31.00;;;20.05;;
24559;SDS011;12727;49.934;8.656;2023-02-22T15:42:42;28.77;;;18.95;;
24559;SDS011;12727;49.934;8.656;2023-02-22T15:45:13;26.80;;;19.55;;
24559;SDS011;12727;49.934;8.656;2023-02-22T15:47:52;26.27;;;19.25;;
24559;SDS011;12727;49.934;8.656;2023-02-22T15:55:38;29.98;;;19.45;;
24559;SDS011;12727;49.934;8.656;2023-02-22T15:58:11;26.10;;;18.98;;
24559;SDS011;12727;49.934;8.656;2023-02-22T16:01:05;24.45;;;18.65;;
24559;SDS011;12727;49.934;8.656;2023-02-22T16:03:40;29.27;;;19.75;;
24559;SDS011;12727;49.934;8.656;2023-02-22T16:06:12;27.98;;;19.45;;
24559;SDS011;12727;49.934;8.656;2023-02-22T16:08:48;28.30;;;19.35;;
24559;SDS011;12727;49.934;8.656;2023-02-22T16:11:20;29.73;;;20.98;;
24559;SDS011;12727;49.934;8.656;2023-02-22T16:14:03;26.73;;;20.05;;
24559;SDS011;12727;49.934;8.656;2023-02-22T16:16:33;28.85;;;20.13;;
24559;SDS011;12727;49.934;8.656;2023-02-22T16:19:23;25.52;;;17.60;;
24559;SDS011;12727;49.934;8.656;2023-02-22T16:22:04;29.13;;;17.83;;
24559;SDS011;12727;49.934;8.656;2023-02-22T16:27:19;32.10;;;20.67;;
24559;SDS011;12727;49.934;8.656;2023-02-22T16:30:02;29.05;;;17.48;;
24559;SDS011;12727;49.934;8.656;2023-02-22T16:32:45;32.42;;;21.13;;
24559;SDS011;12727;49.934;8.656;2023-02-22T16:35:12;27.83;;;19.05;;
24559;SDS011;12727;49.934;8.656;2023-02-22T16:37:50;24.05;;;18.15;;
24559;SDS011;12727;49.934;8.656;2023-02-22T16:40:21;33.65;;;20.77;;
24559;SDS011;12727;49.934;8.656;2023-02-22T16:42:50;33.67;;;21.75;;
24559;SDS011;12727;49.934;8.656;2023-02-22T16:45:18;39.85;;;22.42;;
24559;SDS011;12727;49.934;8.656;2023-02-22T16:47:45;34.63;;;25.00;;
24559;SDS011;12727;49.934;8.656;2023-02-22T16:50:13;33.95;;;23.92;;
24559;SDS011;12727;49.934;8.656;2023-02-22T16:52:40;35.47;;;22.60;;
24559;SDS011;12727;49.934;8.656;2023-02-22T16:55:09;31.10;;;19.70;;
24559;SDS011;12727;49.934;8.656;2023-02-22T16:57:38;33.30;;;22.55;;